N6186F KBUF-CYXU
Flight info
| Callsign | N6186F |
|---|---|
| Flight time | N/A |
| Altitude | 8500 |
| Route | VFR TO CYXU |
| Aircraft | HJET/L-VGDW/C |
Departure
| Time | 2026-04-30 02:48 |
|---|---|
| Airport | Buffalo Niagara International Airport (KBUF) |
Arrival
| Time | N/A |
|---|---|
| Airport | London International Airport (CYXU) |
| Time | Latitude | Longitude | Altitude | Speed | Heading |
|---|---|---|---|---|---|
| 2026-04-30 02:37 | 42.93905 | -78.74145 | 716 ft | 0 kts | 267° |
| 2026-04-30 02:44 | 42.93906 | -78.74147 | 716 ft | 1 kts | 297° |
| 2026-04-30 02:44 | 42.93912 | -78.74134 | 717 ft | 5 kts | 99° |
| 2026-04-30 02:44 | 42.93904 | -78.74036 | 716 ft | 9 kts | 94° |
| 2026-04-30 02:44 | 42.93888 | -78.73876 | 716 ft | 21 kts | 120° |
| 2026-04-30 02:45 | 42.93777 | -78.73794 | 716 ft | 19 kts | 121° |
| 2026-04-30 02:45 | 42.93712 | -78.73645 | 716 ft | 18 kts | 120° |
| 2026-04-30 02:45 | 42.93666 | -78.73498 | 721 ft | 14 kts | 94° |
| 2026-04-30 02:45 | 42.93716 | -78.73379 | 721 ft | 23 kts | 47° |
| 2026-04-30 02:46 | 42.93876 | -78.73168 | 720 ft | 35 kts | 44° |
| 2026-04-30 02:46 | 42.94045 | -78.72933 | 718 ft | 34 kts | 46° |
| 2026-04-30 02:46 | 42.94191 | -78.72726 | 721 ft | 17 kts | 64° |
| 2026-04-30 02:46 | 42.94223 | -78.72717 | 721 ft | 4 kts | 265° |
| 2026-04-30 02:47 | 42.94221 | -78.72723 | 720 ft | 6 kts | 229° |
| 2026-04-30 02:47 | 42.94218 | -78.72728 | 720 ft | 0 kts | 226° |
| 2026-04-30 02:47 | 42.94001 | -78.73012 | 722 ft | 93 kts | 223° |
| 2026-04-30 02:48 | 42.93336 | -78.73876 | 856 ft | 151 kts | 224° |
| 2026-04-30 02:48 | 42.92579 | -78.74906 | 1554 ft | 159 kts | 226° |
| 2026-04-30 02:48 | 42.91771 | -78.76022 | 2269 ft | 171 kts | 229° |
| 2026-04-30 02:48 | 42.91325 | -78.77517 | 2989 ft | 182 kts | 271° |
| 2026-04-30 02:49 | 42.91629 | -78.79234 | 3730 ft | 193 kts | 286° |
| 2026-04-30 02:49 | 42.91882 | -78.81086 | 4473 ft | 205 kts | 275° |
| 2026-04-30 02:49 | 42.91987 | -78.83069 | 5219 ft | 217 kts | 274° |
| 2026-04-30 02:49 | 42.92100 | -78.85155 | 5968 ft | 228 kts | 275° |
| 2026-04-30 02:50 | 42.92240 | -78.87358 | 6723 ft | 238 kts | 275° |
| 2026-04-30 02:50 | 42.92386 | -78.89657 | 7477 ft | 248 kts | 275° |
| 2026-04-30 02:50 | 42.92535 | -78.92046 | 8237 ft | 257 kts | 275° |
| 2026-04-30 02:50 | 42.92689 | -78.94531 | 8499 ft | 274 kts | 275° |
| 2026-04-30 02:51 | 42.92848 | -78.97128 | 8506 ft | 274 kts | 275° |
| 2026-04-30 02:51 | 42.93008 | -78.99716 | 8508 ft | 274 kts | 275° |
| 2026-04-30 02:51 | 42.93166 | -79.02305 | 8509 ft | 274 kts | 275° |
| 2026-04-30 02:51 | 42.93324 | -79.04894 | 8508 ft | 274 kts | 275° |
| 2026-04-30 02:52 | 42.93482 | -79.07488 | 8510 ft | 274 kts | 275° |
| 2026-04-30 02:52 | 42.93638 | -79.10073 | 8509 ft | 274 kts | 275° |
| 2026-04-30 02:52 | 42.93795 | -79.12662 | 8509 ft | 274 kts | 275° |
| 2026-04-30 02:52 | 42.93950 | -79.15257 | 8509 ft | 274 kts | 275° |
| 2026-04-30 02:53 | 42.94106 | -79.17847 | 8509 ft | 274 kts | 275° |
| 2026-04-30 02:53 | 42.94257 | -79.20403 | 8509 ft | 274 kts | 275° |
| 2026-04-30 02:53 | 42.94412 | -79.22993 | 8509 ft | 274 kts | 275° |
| 2026-04-30 02:53 | 42.94565 | -79.25583 | 8509 ft | 274 kts | 274° |
| 2026-04-30 02:54 | 42.94717 | -79.28173 | 8509 ft | 274 kts | 275° |
| 2026-04-30 02:54 | 42.94869 | -79.30763 | 8509 ft | 274 kts | 274° |
| 2026-04-30 02:54 | 42.95020 | -79.33354 | 8509 ft | 274 kts | 274° |
| 2026-04-30 02:54 | 42.95172 | -79.35944 | 8509 ft | 274 kts | 274° |
| 2026-04-30 02:55 | 42.95321 | -79.38535 | 8509 ft | 274 kts | 274° |
| 2026-04-30 02:55 | 42.95470 | -79.41092 | 8509 ft | 274 kts | 274° |
| 2026-04-30 02:55 | 42.95618 | -79.43683 | 8509 ft | 274 kts | 274° |
| 2026-04-30 02:55 | 42.95767 | -79.46274 | 8509 ft | 274 kts | 274° |
| 2026-04-30 02:56 | 42.95915 | -79.48870 | 8509 ft | 274 kts | 274° |
| 2026-04-30 02:56 | 42.96063 | -79.51461 | 8509 ft | 274 kts | 274° |
| 2026-04-30 02:56 | 42.96210 | -79.54053 | 8509 ft | 274 kts | 274° |
| 2026-04-30 02:56 | 42.96355 | -79.56644 | 8509 ft | 274 kts | 274° |
| 2026-04-30 02:57 | 42.96447 | -79.58259 | 8509 ft | 274 kts | 274° |